Time;durP1;ratioP1;P1;durP2;ratioP2;P2;SDS_P1;SDS_P2;PMS_P1;PMS_P2;Temp;Humidity;BMP_temperature;BMP_pressure;BME280_temperature;BME280_humidity;BME280_pressure;Samples;Min_cycle;Max_cycle;Signal;HPM_P1;HPM_P2
2023/09/25 04:43:57;;;;;;;;;;;;;;;16.54;60.82;97443.03;4190858;28;10445;-61
2023/09/25 04:46:00;;;;;;;;;;;;;;;16.83;60.40;97429.09;4198133;28;5671;-61
2023/09/25 04:48:04;;;;;;;;;;;;;;;17.06;60.00;97436.50;4193701;28;5720;-59
2023/09/25 04:50:08;;;;;;;;;;;;;;;17.24;59.57;97432.25;4196615;28;5805;-61
2023/09/25 04:52:11;;;;;;;;;;;;;;;17.38;59.13;97431.06;4197699;28;5744;-60
2023/09/25 04:54:14;;;;;;;;;;;;;;;17.49;58.86;97437.56;4195243;28;5731;-61
2023/09/25 04:56:21;;;;;;;;;;;;;;;17.59;58.62;97437.84;4197960;28;5712;-61
2023/09/25 04:58:24;;;;;;;;;;;;;;;17.66;58.29;97435.91;4197818;28;5860;-61
2023/09/25 05:00:28;;;;;;;;;;;;;;;17.71;58.26;97439.59;4198038;28;5724;-61
2023/09/25 05:02:30;;;;;;;;;;;;;;;17.74;57.98;97441.00;4197900;28;5791;-61
2023/09/25 05:04:34;;;;;;;;;;;;;;;17.81;57.77;97451.66;4197048;28;5704;-61
2023/09/25 05:06:36;;;;;;;;;;;;;;;17.83;57.53;97444.22;4194936;28;5828;-61
2023/09/25 05:08:40;;;;;;;;;;;;;;;17.85;57.34;97445.63;4197875;28;5728;-62
2023/09/25 05:10:44;;;;;;;;;;;;;;;17.88;57.13;97447.84;4197723;28;5958;-62
2023/09/25 05:12:47;;;;;;;;;;;;;;;17.92;57.02;97443.69;4197764;28;6529;-60
2023/09/25 05:14:50;;;;;;;;;;;;;;;17.93;56.79;97439.16;4197875;28;5716;-62
2023/09/25 05:16:54;;;;;;;;;;;;;;;17.95;56.71;97440.56;4195880;28;5711;-63
2023/09/25 05:18:59;;;;;;;;;;;;;;;17.97;56.46;97451.03;4192868;28;5720;-63
2023/09/25 05:21:03;;;;;;;;;;;;;;;17.99;56.44;97439.06;4196958;28;5712;-62
2023/09/25 05:23:06;;;;;;;;;;;;;;;18.01;56.32;97438.88;4197670;28;5709;-63
2023/09/25 05:25:10;;;;;;;;;;;;;;;18.01;55.98;97441.53;4197724;28;6399;-62
2023/09/25 05:27:13;;;;;;;;;;;;;;;18.02;55.87;97435.97;4197637;28;5819;-63
2023/09/25 05:29:16;;;;;;;;;;;;;;;18.03;55.74;97434.09;4187123;28;5742;-63
2023/09/25 05:31:18;;;;;;;;;;;;;;;18.03;55.75;97429.56;4188024;28;5819;-63
2023/09/25 05:33:23;;;;;;;;;;;;;;;18.04;55.58;97431.19;4188043;28;5864;-63
2023/09/25 05:35:26;;;;;;;;;;;;;;;18.04;55.49;97439.22;4184965;28;5847;-62
2023/09/25 05:37:29;;;;;;;;;;;;;;;18.04;55.41;97436.53;4190484;28;5839;-63
2023/09/25 05:39:32;;;;;;;;;;;;;;;18.03;55.30;97436.78;4189829;28;6605;-62
2023/09/25 05:41:36;;;;;;;;;;;;;;;18.04;55.17;97439.22;4194475;28;5803;-62
2023/09/25 05:43:39;;;;;;;;;;;;;;;18.03;55.07;97442.94;4190829;28;5716;-63
2023/09/25 05:45:42;;;;;;;;;;;;;;;18.06;55.10;97443.53;4178785;28;5733;-63
2023/09/25 05:47:45;;;;;;;;;;;;;;;18.06;54.89;97438.19;4180237;28;7138;-63
2023/09/25 05:49:50;;;;;;;;;;;;;;;18.06;54.85;97441.66;4185829;28;5723;-62
2023/09/25 05:51:54;;;;;;;;;;;;;;;18.06;54.84;97443.53;4182368;28;5853;-63
2023/09/25 05:53:57;;;;;;;;;;;;;;;18.06;54.68;97440.84;4175762;28;5700;-63
2023/09/25 05:55:59;;;;;;;;;;;;;;;18.07;54.59;97437.13;4186093;28;5728;-63
2023/09/25 05:58:03;;;;;;;;;;;;;;;18.07;54.50;97445.97;4186140;28;5779;-63
2023/09/25 06:00:11;;;;;;;;;;;;;;;18.08;54.48;97452.13;4184998;28;5674;-62
2023/09/25 06:02:14;;;;;;;;;;;;;;;18.08;54.46;97455.63;4186299;28;5943;-62
2023/09/25 06:04:17;;;;;;;;;;;;;;;18.10;54.37;97456.22;4185691;28;5737;-63
2023/09/25 06:06:22;;;;;;;;;;;;;;;18.10;54.22;97452.72;4186285;28;5712;-63
2023/09/25 06:08:24;;;;;;;;;;;;;;;18.10;54.31;97460.75;4185968;28;5724;-63
2023/09/25 06:10:27;;;;;;;;;;;;;;;18.10;54.33;97466.91;4185946;28;5809;-63
2023/09/25 06:12:30;;;;;;;;;;;;;;;18.11;54.16;97467.75;4185891;28;5716;-63
2023/09/25 06:14:33;;;;;;;;;;;;;;;18.11;54.12;97470.41;4186069;28;5912;-63
2023/09/25 06:16:39;;;;;;;;;;;;;;;18.12;54.20;97469.38;4185772;28;5715;-63
2023/09/25 06:18:43;;;;;;;;;;;;;;;18.14;54.07;97467.31;4185707;28;5795;-63
2023/09/25 06:20:48;;;;;;;;;;;;;;;18.15;54.01;97474.28;4185764;28;5807;-63
2023/09/25 06:22:52;;;;;;;;;;;;;;;18.18;54.06;97473.84;4185905;28;5823;-62
2023/09/25 06:24:56;;;;;;;;;;;;;;;18.20;53.96;97472.56;4185919;28;6587;-63
2023/09/25 06:26:59;;;;;;;;;;;;;;;18.21;54.02;97478.72;4185830;28;6413;-63
2023/09/25 06:29:01;;;;;;;;;;;;;;;18.23;54.04;97479.31;4185609;28;5725;-63
2023/09/25 06:31:04;;;;;;;;;;;;;;;18.25;53.94;97486.09;4185789;28;5804;-63
2023/09/25 06:33:07;;;;;;;;;;;;;;;18.28;53.95;97484.84;4185569;28;5742;-63
2023/09/25 06:35:10;;;;;;;;;;;;;;;18.29;54.02;97481.09;4185555;28;5716;-62
2023/09/25 06:37:13;;;;;;;;;;;;;;;18.31;53.97;97484.38;4185360;28;5811;-62
2023/09/25 06:39:17;;;;;;;;;;;;;;;18.33;53.98;97483.09;4185726;28;5889;-62
2023/09/25 06:41:20;;;;;;;;;;;;;;;18.34;53.98;97486.59;4185422;28;5708;-62
2023/09/25 06:43:23;;;;;;;;;;;;;;;18.36;54.00;97492.56;4185238;28;5831;-63
2023/09/25 06:45:26;;;;;;;;;;;;;;;18.39;53.98;97497.47;4185306;28;5795;-63
2023/09/25 06:47:29;;;;;;;;;;;;;;;18.40;53.85;97488.38;4185241;28;5720;-62
2023/09/25 06:49:32;;;;;;;;;;;;;;;18.42;53.88;97502.34;4185048;28;7385;-63
2023/09/25 06:51:35;;;;;;;;;;;;;;;18.42;53.70;97490.81;4185291;28;5711;-63
2023/09/25 06:53:38;;;;;;;;;;;;;;;18.43;53.62;97487.09;4185264;28;5766;-63
2023/09/25 06:55:44;;;;;;;;;;;;;;;18.42;53.61;97497.00;4184321;28;5712;-63
2023/09/25 06:57:47;;;;;;;;;;;;;;;18.44;53.34;97494.09;4185216;28;5824;-63
2023/09/25 06:59:50;;;;;;;;;;;;;;;18.45;53.11;97491.19;4185229;28;5720;-64
2023/09/25 07:01:53;;;;;;;;;;;;;;;18.47;53.10;97494.47;4185093;28;5791;-64
2023/09/25 07:03:56;;;;;;;;;;;;;;;18.51;53.04;97500.19;4184828;28;5697;-63
2023/09/25 07:05:59;;;;;;;;;;;;;;;18.52;53.00;97499.97;4185331;28;5720;-63
2023/09/25 07:08:03;;;;;;;;;;;;;;;18.54;52.94;97500.53;4184881;28;5708;-63
2023/09/25 07:10:09;;;;;;;;;;;;;;;18.57;53.06;97502.78;4185203;28;5803;-62
2023/09/25 07:12:15;;;;;;;;;;;;;;;18.59;52.73;97498.00;4185072;28;5832;-62
2023/09/25 07:14:19;;;;;;;;;;;;;;;18.61;52.71;97497.78;4184965;28;5882;-62
2023/09/25 07:16:21;;;;;;;;;;;;;;;18.62;52.66;97502.91;4185051;28;5771;-63
2023/09/25 07:18:24;;;;;;;;;;;;;;;18.62;52.68;97502.91;4184599;28;5783;-63
2023/09/25 07:20:27;;;;;;;;;;;;;;;18.62;52.48;97502.09;4184473;28;5724;-64
2023/09/25 07:22:31;;;;;;;;;;;;;;;18.60;52.41;97496.16;4184893;28;5732;-63
2023/09/25 07:24:34;;;;;;;;;;;;;;;18.60;52.32;97491.63;4184804;28;5794;-63
2023/09/25 07:26:37;;;;;;;;;;;;;;;18.59;52.38;97492.66;4184789;28;5704;-62
2023/09/25 07:28:41;;;;;;;;;;;;;;;18.59;52.46;97492.66;4184545;28;5946;-62
2023/09/25 07:30:45;;;;;;;;;;;;;;;18.61;52.29;97498.59;4184564;28;5786;-63
2023/09/25 07:32:48;;;;;;;;;;;;;;;18.62;52.26;97496.75;4184455;28;5791;-63
2023/09/25 07:34:52;;;;;;;;;;;;;;;18.64;52.19;97494.69;4184196;28;5724;-63
2023/09/25 07:36:55;;;;;;;;;;;;;;;18.65;52.29;97496.31;4184433;28;6108;-63
2023/09/25 07:38:58;;;;;;;;;;;;;;;18.68;52.15;97497.72;4184584;28;5708;-63
2023/09/25 07:41:01;;;;;;;;;;;;;;;18.68;52.04;97511.09;4184373;28;7169;-63
2023/09/25 07:43:04;;;;;;;;;;;;;;;18.71;52.12;97499.97;4184231;28;5090;-64
2023/09/25 07:45:12;;;;;;;;;;;;;;;18.73;52.04;97498.69;4184676;28;5815;-63
2023/09/25 07:47:17;;;;;;;;;;;;;;;18.73;52.05;97501.34;4184486;28;5787;-64
2023/09/25 07:49:19;;;;;;;;;;;;;;;18.76;52.11;97505.44;4184308;28;5708;-62
2023/09/25 07:51:24;;;;;;;;;;;;;;;18.77;51.73;97504.38;4184690;28;5724;-63
2023/09/25 07:53:28;;;;;;;;;;;;;;;18.79;51.76;97504.97;4184475;28;5747;-63
2023/09/25 07:55:30;;;;;;;;;;;;;;;18.80;51.79;97503.91;4184418;28;5708;-63
2023/09/25 07:57:35;;;;;;;;;;;;;;;18.81;51.96;97505.59;4184308;28;5741;-63
2023/09/25 07:59:39;;;;;;;;;;;;;;;18.83;52.10;97506.16;4184431;28;5724;-63
2023/09/25 08:01:43;;;;;;;;;;;;;;;18.84;51.78;97505.94;4184258;28;5782;-63
2023/09/25 08:03:47;;;;;;;;;;;;;;;18.85;51.93;97498.72;4184144;28;5704;-63
2023/09/25 08:05:52;;;;;;;;;;;;;;;18.86;51.74;97498.47;4184303;28;6084;-63
2023/09/25 08:07:55;;;;;;;;;;;;;;;18.91;51.90;97503.13;4183751;28;7723;-63
2023/09/25 08:09:59;;;;;;;;;;;;;;;18.93;52.05;97498.41;4182877;28;5721;-63
2023/09/25 08:12:03;;;;;;;;;;;;;;;18.95;51.95;97501.66;4184190;28;5708;-62
2023/09/25 08:14:06;;;;;;;;;;;;;;;18.95;51.92;97500.84;4184144;28;5847;-63
2023/09/25 08:16:09;;;;;;;;;;;;;;;18.96;51.74;97502.47;4184206;28;5727;-63
2023/09/25 08:18:14;;;;;;;;;;;;;;;18.96;51.71;97500.59;4184115;28;5732;-63
2023/09/25 08:20:20;;;;;;;;;;;;;;;18.97;51.61;97504.91;4184267;28;5720;-63
2023/09/25 08:22:23;;;;;;;;;;;;;;;18.97;51.72;97507.59;4184158;28;5712;-63
2023/09/25 08:24:27;;;;;;;;;;;;;;;18.98;51.89;97509.22;4184214;28;5732;-63
2023/09/25 08:26:30;;;;;;;;;;;;;;;18.99;51.84;97508.19;4183953;28;5716;-63
2023/09/25 08:28:33;;;;;;;;;;;;;;;18.96;51.58;97511.31;4183949;28;6429;-64
2023/09/25 08:30:36;;;;;;;;;;;;;;;18.94;51.96;97508.06;4183926;28;5898;-63
2023/09/25 08:32:39;;;;;;;;;;;;;;;18.94;51.69;97509.94;4183879;28;5712;-63
2023/09/25 08:34:44;;;;;;;;;;;;;;;18.95;51.74;97507.00;4183803;28;5704;-63
2023/09/25 08:36:47;;;;;;;;;;;;;;;18.96;51.88;97513.19;4183849;28;5816;-63
2023/09/25 08:38:50;;;;;;;;;;;;;;;18.97;51.73;97521.00;4183919;28;5720;-62
2023/09/25 08:40:53;;;;;;;;;;;;;;;18.98;51.79;97516.44;4184097;28;5716;-63
2023/09/25 08:42:57;;;;;;;;;;;;;;;18.98;51.75;97511.09;4183615;28;5732;-63
2023/09/25 08:45:22;;;;;;;;;;;;;;;18.98;51.72;97506.56;4184058;28;5720;-63
2023/09/25 08:47:25;;;;;;;;;;;;;;;18.99;51.72;97513.53;4184034;28;5708;-63
2023/09/25 08:49:31;;;;;;;;;;;;;;;19.00;51.94;97512.50;4183648;28;5818;-64
2023/09/25 08:51:38;;;;;;;;;;;;;;;19.01;51.98;97508.75;4184019;28;5703;-64
2023/09/25 08:53:42;;;;;;;;;;;;;;;19.03;51.91;97513.91;4183955;28;5795;-63
2023/09/25 08:55:45;;;;;;;;;;;;;;;19.01;51.71;97511.44;4183877;28;5919;-64
2023/09/25 08:57:48;;;;;;;;;;;;;;;19.03;51.59;97517.41;4183870;28;5724;-63
2023/09/25 08:59:50;;;;;;;;;;;;;;;19.03;51.84;97509.38;4183811;28;5720;-63
2023/09/25 09:01:54;;;;;;;;;;;;;;;19.05;51.88;97507.28;4183565;28;5713;-63
2023/09/25 09:03:57;;;;;;;;;;;;;;;19.07;51.73;97510.53;4183621;28;5791;-64
2023/09/25 09:06:00;;;;;;;;;;;;;;;19.07;51.76;97507.03;4183602;28;5752;-63
2023/09/25 09:08:06;;;;;;;;;;;;;;;19.06;51.78;97519.63;4183921;28;5736;-63
2023/09/25 09:10:10;;;;;;;;;;;;;;;19.07;51.74;97515.09;4184051;28;5704;-64
2023/09/25 09:12:13;;;;;;;;;;;;;;;19.04;51.45;97516.38;4183806;28;5871;-64
2023/09/25 09:14:31;;;;;;;;;;;;;;;19.02;51.54;97523.78;4183643;28;5704;-64
2023/09/25 09:16:34;;;;;;;;;;;;;;;19.02;51.83;97513.06;4183831;28;5741;-63
2023/09/25 09:18:37;;;;;;;;;;;;;;;19.04;51.71;97519.03;4183859;28;5248;-64
2023/09/25 09:20:40;;;;;;;;;;;;;;;19.06;51.91;97518.81;4186948;28;5716;-63
2023/09/25 09:22:50;;;;;;;;;;;;;;;19.07;51.53;97513.22;4186873;28;5814;-64
2023/09/25 09:24:56;;;;;;;;;;;;;;;19.08;51.48;97516.72;4186835;28;5841;-65
2023/09/25 09:27:01;;;;;;;;;;;;;;;19.07;51.65;97512.41;4186767;28;5736;-64
2023/09/25 09:29:04;;;;;;;;;;;;;;;19.08;51.56;97517.53;4186620;28;5713;-64
2023/09/25 09:31:07;;;;;;;;;;;;;;;19.09;51.79;97511.13;4186676;28;5771;-64
2023/09/25 09:33:11;;;;;;;;;;;;;;;19.07;51.60;97507.88;4186334;28;5720;-64
2023/09/25 09:35:15;;;;;;;;;;;;;;;19.10;51.91;97512.75;4185874;28;5716;-63
2023/09/25 09:37:19;;;;;;;;;;;;;;;19.11;51.64;97517.06;4186590;28;5716;-63
2023/09/25 09:39:25;;;;;;;;;;;;;;;19.11;51.62;97517.06;4186461;28;5843;-63
2023/09/25 09:41:30;;;;;;;;;;;;;;;19.14;51.48;97515.78;4186617;28;5708;-63
2023/09/25 09:43:34;;;;;;;;;;;;;;;19.14;51.69;97515.78;4186293;28;5827;-63
2023/09/25 09:45:38;;;;;;;;;;;;;;;19.15;51.64;97526.31;4186671;28;5724;-63
2023/09/25 09:47:41;;;;;;;;;;;;;;;19.16;51.61;97517.22;4186528;28;5728;-63
2023/09/25 09:49:45;;;;;;;;;;;;;;;19.15;51.57;97522.81;4186017;28;5708;-63
2023/09/25 09:51:49;;;;;;;;;;;;;;;19.14;51.66;97521.13;4186359;28;5720;-63
2023/09/25 09:53:53;;;;;;;;;;;;;;;19.15;51.66;97515.56;4186267;28;5716;-63
2023/09/25 09:55:57;;;;;;;;;;;;;;;19.17;51.65;97520.69;4186309;28;5720;-63
2023/09/25 09:58:02;;;;;;;;;;;;;;;19.17;51.92;97520.69;4186235;28;5708;-62
2023/09/25 10:00:07;;;;;;;;;;;;;;;19.17;51.66;97512.66;4186283;28;5727;-62
2023/09/25 10:02:09;;;;;;;;;;;;;;;19.19;51.45;97503.34;4186193;28;5843;-62
2023/09/25 10:04:14;;;;;;;;;;;;;;;19.19;51.67;97500.66;4185954;28;5795;-62
2023/09/25 10:06:17;;;;;;;;;;;;;;;19.19;51.70;97502.53;4186321;28;6415;-62
2023/09/25 10:08:21;;;;;;;;;;;;;;;19.19;51.88;97508.69;4186136;28;5818;-62
2023/09/25 10:10:24;;;;;;;;;;;;;;;19.20;51.74;97504.97;4186244;28;5708;-62
2023/09/25 10:12:40;;;;;;;;;;;;;;;19.20;51.79;97502.28;4186225;28;5941;-61
2023/09/25 10:14:50;;;;;;;;;;;;;;;19.23;51.75;97500.19;4186257;28;5736;-62
2023/09/25 10:17:00;;;;;;;;;;;;;;;19.23;51.93;97497.50;4186230;28;6410;-63
2023/09/25 10:19:04;;;;;;;;;;;;;;;19.25;51.88;97500.78;4185702;28;6412;-63
2023/09/25 10:21:14;;;;;;;;;;;;;;;19.24;51.83;97516.03;4186129;28;5716;-64
2023/09/25 10:23:22;;;;;;;;;;;;;;;19.25;51.76;97511.50;4185944;28;6903;-64
2023/09/25 10:25:26;;;;;;;;;;;;;;;19.27;51.97;97514.78;4185958;28;5837;-63
2023/09/25 10:27:31;;;;;;;;;;;;;;;19.26;52.08;97513.97;4185669;28;5833;-63
2023/09/25 10:29:34;;;;;;;;;;;;;;;19.29;52.03;97512.69;4185724;28;5715;-63
2023/09/25 10:31:42;;;;;;;;;;;;;;;19.31;51.74;97507.91;4185695;28;5771;-63
2023/09/25 10:33:57;;;;;;;;;;;;;;;19.31;52.03;97508.72;4185626;28;6006;-63
2023/09/25 10:36:03;;;;;;;;;;;;;;;19.31;51.98;97513.25;4185724;28;5735;-63
2023/09/25 10:38:11;;;;;;;;;;;;;;;19.30;51.99;97503.59;4185618;28;5717;-64
2023/09/25 10:40:32;;;;;;;;;;;;;;;19.31;51.97;97506.03;4185523;28;6615;-64
2023/09/25 10:42:36;;;;;;;;;;;;;;;19.32;52.01;97501.50;4185373;28;5831;-63
2023/09/25 10:44:39;;;;;;;;;;;;;;;19.31;52.05;97510.59;4185542;28;5823;-62
2023/09/25 10:46:43;;;;;;;;;;;;;;;19.31;52.04;97511.41;4185456;28;5887;-63
2023/09/25 10:48:48;;;;;;;;;;;;;;;19.33;52.03;97511.16;4185313;28;5716;-63
2023/09/25 10:50:52;;;;;;;;;;;;;;;19.34;52.10;97510.94;4185569;28;5732;-64
2023/09/25 10:52:56;;;;;;;;;;;;;;;19.33;51.91;97501.25;4185330;28;5704;-63
2023/09/25 10:54:58;;;;;;;;;;;;;;;19.34;52.12;97499.38;4185386;28;5776;-63
2023/09/25 10:57:02;;;;;;;;;;;;;;;19.35;52.07;97501.84;4185214;28;5720;-64
2023/09/25 10:59:05;;;;;;;;;;;;;;;19.39;52.25;97502.22;4185143;28;5696;-63
2023/09/25 11:01:09;;;;;;;;;;;;;;;19.41;51.89;97508.16;4185261;28;5824;-64
2023/09/25 11:03:14;;;;;;;;;;;;;;;19.42;52.08;97507.09;4185103;28;5735;-63
2023/09/25 11:05:17;;;;;;;;;;;;;;;19.44;52.03;97510.34;4185068;28;6390;-63
2023/09/25 11:07:21;;;;;;;;;;;;;;;19.42;52.08;97507.09;4185202;28;5708;-62
2023/09/25 11:09:26;;;;;;;;;;;;;;;19.43;52.21;97506.88;4185198;28;5787;-63
2023/09/25 11:11:30;;;;;;;;;;;;;;;19.45;52.08;97503.94;4185138;28;5894;-63
2023/09/25 11:13:33;;;;;;;;;;;;;;;19.46;52.06;97505.56;4185079;28;5824;-64
2023/09/25 11:15:38;;;;;;;;;;;;;;;19.47;51.73;97505.34;4184965;28;5748;-63
2023/09/25 11:17:41;;;;;;;;;;;;;;;19.46;51.93;97503.72;4184600;28;5708;-63
2023/09/25 11:19:46;;;;;;;;;;;;;;;19.46;51.93;97498.34;4184747;28;5192;-63
2023/09/25 11:21:50;;;;;;;;;;;;;;;19.46;52.16;97498.34;4185124;28;5704;-63
2023/09/25 11:23:53;;;;;;;;;;;;;;;19.49;52.02;97503.25;4184997;28;5725;-64
2023/09/25 11:25:56;;;;;;;;;;;;;;;19.50;51.88;97504.09;4184842;28;5728;-63
2023/09/25 11:27:58;;;;;;;;;;;;;;;19.49;51.98;97505.13;4184716;28;5778;-63
2023/09/25 11:30:06;;;;;;;;;;;;;;;19.51;52.02;97510.25;4185021;28;5807;-63
2023/09/25 11:32:10;;;;;;;;;;;;;;;19.51;52.20;97497.66;4184804;28;6477;-63
2023/09/25 11:34:15;;;;;;;;;;;;;;;19.52;52.12;97496.63;4184496;28;5819;-63
2023/09/25 11:36:20;;;;;;;;;;;;;;;19.53;52.11;97495.56;4184673;28;5861;-63
2023/09/25 11:38:25;;;;;;;;;;;;;;;19.54;52.02;97494.50;4184445;28;5731;-63
2023/09/25 11:40:29;;;;;;;;;;;;;;;19.56;52.18;97492.44;4183218;28;5724;-63
2023/09/25 11:42:32;;;;;;;;;;;;;;;19.56;51.94;97486.25;4183729;28;5712;-62
2023/09/25 11:44:35;;;;;;;;;;;;;;;19.57;52.07;97477.16;4184611;28;5724;-63
2023/09/25 11:46:38;;;;;;;;;;;;;;;19.57;52.08;97482.53;4183651;28;5720;-63
2023/09/25 11:48:41;;;;;;;;;;;;;;;19.59;51.81;97483.91;4183717;28;5815;-63
2023/09/25 11:50:45;;;;;;;;;;;;;;;19.60;51.95;97480.22;4184498;28;5712;-63
2023/09/25 11:52:49;;;;;;;;;;;;;;;19.60;52.24;97488.25;4184611;28;5726;-63
2023/09/25 11:54:52;;;;;;;;;;;;;;;19.60;52.25;97482.91;4184468;28;5716;-63
2023/09/25 11:56:55;;;;;;;;;;;;;;;19.63;52.04;97493.16;4184347;28;5712;-63
2023/09/25 11:58:58;;;;;;;;;;;;;;;19.65;51.85;97484.88;4184419;28;5090;-63
2023/09/25 12:01:02;;;;;;;;;;;;;;;19.67;52.03;97486.25;4184485;28;5731;-63
2023/09/25 12:03:07;;;;;;;;;;;;;;;19.68;52.03;97484.38;4184234;28;5723;-63
2023/09/25 12:05:11;;;;;;;;;;;;;;;19.67;51.96;97483.56;4184317;28;5704;-63
2023/09/25 12:07:14;;;;;;;;;;;;;;;19.68;52.10;97479.03;4184189;28;7203;-63
2023/09/25 12:09:19;;;;;;;;;;;;;;;19.67;52.04;97478.22;4184346;28;5724;-63
2023/09/25 12:11:22;;;;;;;;;;;;;;;19.69;51.77;97470.75;4184387;28;5810;-63
2023/09/25 12:13:25;;;;;;;;;;;;;;;19.70;52.10;97479.59;4184119;28;5712;-63
2023/09/25 12:15:27;;;;;;;;;;;;;;;19.71;52.09;97473.22;4184191;28;5720;-63
2023/09/25 12:17:30;;;;;;;;;;;;;;;19.74;52.01;97468.19;4184115;28;5703;-63
2023/09/25 12:19:33;;;;;;;;;;;;;;;19.75;51.98;97474.38;4184185;28;5752;-63
2023/09/25 12:21:36;;;;;;;;;;;;;;;19.76;51.91;97473.31;4184192;28;5775;-64
2023/09/25 12:23:39;;;;;;;;;;;;;;;19.78;51.69;97482.75;4184101;28;5733;-63
2023/09/25 12:25:45;;;;;;;;;;;;;;;19.80;51.89;97484.38;4184094;28;6493;-64
2023/09/25 12:27:48;;;;;;;;;;;;;;;19.82;51.91;97484.94;4184219;28;5724;-64
2023/09/25 12:29:51;;;;;;;;;;;;;;;19.83;51.60;97483.94;4184054;28;5716;-64
2023/09/25 12:31:54;;;;;;;;;;;;;;;19.83;51.70;97481.25;4183905;28;5716;-63
2023/09/25 12:33:57;;;;;;;;;;;;;;;19.83;51.77;97482.06;4183851;28;5707;-64
2023/09/25 12:36:00;;;;;;;;;;;;;;;19.84;51.52;97480.19;4184087;28;5716;-63
2023/09/25 12:38:03;;;;;;;;;;;;;;;19.85;51.52;97473.78;4184085;28;5704;-63
2023/09/25 12:40:08;;;;;;;;;;;;;;;19.86;51.52;97478.09;4184339;28;5795;-62
2023/09/25 12:42:12;;;;;;;;;;;;;;;19.86;51.75;97470.84;4183874;28;5720;-63
2023/09/25 12:44:24;;;;;;;;;;;;;;;19.88;51.46;97466.06;4183808;28;5836;-63
2023/09/25 12:46:27;;;;;;;;;;;;;;;19.89;51.87;97469.56;4184088;28;5729;-63
2023/09/25 12:48:30;;;;;;;;;;;;;;;19.90;51.67;97472.00;4183588;28;5104;-63
2023/09/25 12:50:34;;;;;;;;;;;;;;;19.90;51.89;97468.50;4183995;28;5862;-64
2023/09/25 12:52:39;;;;;;;;;;;;;;;19.92;51.82;97459.16;4183240;28;5830;-64
2023/09/25 12:54:42;;;;;;;;;;;;;;;19.92;51.55;97458.34;4185263;28;5704;-64
2023/09/25 12:56:45;;;;;;;;;;;;;;;19.93;51.75;97459.97;4187124;28;5878;-64
2023/09/25 12:58:51;;;;;;;;;;;;;;;19.94;51.57;97459.75;4187168;28;5752;-62
2023/09/25 13:00:53;;;;;;;;;;;;;;;19.96;51.96;97454.97;4187743;28;5701;-62
2023/09/25 13:02:57;;;;;;;;;;;;;;;19.97;51.77;97453.91;4195484;28;5732;-62
2023/09/25 13:05:00;;;;;;;;;;;;;;;19.99;51.62;97453.69;4186808;28;5709;-62
2023/09/25 13:07:02;;;;;;;;;;;;;;;20.01;51.76;97454.25;4186600;28;5791;-63
2023/09/25 13:09:07;;;;;;;;;;;;;;;20.00;51.48;97444.56;4191356;28;5894;-63
2023/09/25 13:11:10;;;;;;;;;;;;;;;20.02;51.56;97439.78;4185996;28;5936;-64
2023/09/25 13:13:13;;;;;;;;;;;;;;;20.02;51.62;97432.53;4185596;28;5922;-64
2023/09/25 13:15:20;;;;;;;;;;;;;;;20.06;51.71;97440.94;4186232;28;5719;-64
2023/09/25 13:17:23;;;;;;;;;;;;;;;20.05;51.99;97436.63;4183014;28;5799;-64
2023/09/25 13:19:26;;;;;;;;;;;;;;;20.05;51.67;97444.69;4185346;28;5712;-64
2023/09/25 13:21:29;;;;;;;;;;;;;;;20.03;51.69;97441.41;4185883;28;6037;-65
2023/09/25 13:23:32;;;;;;;;;;;;;;;20.05;51.65;97442.00;4185292;28;7745;-64
2023/09/25 13:25:35;;;;;;;;;;;;;;;20.05;51.93;97436.63;4185685;28;5724;-64
2023/09/25 13:27:39;;;;;;;;;;;;;;;20.08;51.86;97441.53;4186293;28;5725;-64
2023/09/25 13:29:43;;;;;;;;;;;;;;;20.08;51.85;97446.88;4186460;28;5717;-64
2023/09/25 13:31:48;;;;;;;;;;;;;;;20.08;52.09;97449.56;4185355;28;5732;-64
2023/09/25 13:33:51;;;;;;;;;;;;;;;20.10;52.08;97450.16;4185267;28;5804;-64
2023/09/25 13:35:54;;;;;;;;;;;;;;;20.11;51.88;97446.41;4185384;28;5748;-65
2023/09/25 13:37:57;;;;;;;;;;;;;;;20.11;51.92;97441.03;4185341;28;5917;-65
2023/09/25 13:40:00;;;;;;;;;;;;;;;20.12;52.03;97441.84;4185900;28;5701;-65
2023/09/25 13:42:03;;;;;;;;;;;;;;;20.12;51.72;97439.97;4185225;28;5884;-64
2023/09/25 13:44:06;;;;;;;;;;;;;;;20.13;51.83;97436.25;4185264;28;5808;-65
2023/09/25 13:46:09;;;;;;;;;;;;;;;20.15;51.93;97444.88;4185694;28;5720;-65
2023/09/25 13:48:13;;;;;;;;;;;;;;;20.16;52.16;97437.63;4188222;28;5724;-63
2023/09/25 13:50:16;;;;;;;;;;;;;;;20.15;51.83;97438.69;4186485;28;5740;-63
2023/09/25 13:52:19;;;;;;;;;;;;;;;20.15;52.34;97444.88;4186483;28;5712;-63
2023/09/25 13:54:22;;;;;;;;;;;;;;;20.16;52.19;97441.16;4187052;28;5894;-63
2023/09/25 13:56:27;;;;;;;;;;;;;;;20.15;52.30;97442.19;4185836;28;5713;-63
2023/09/25 13:58:30;;;;;;;;;;;;;;;20.18;52.05;97433.69;4185399;28;5708;-62
2023/09/25 14:00:34;;;;;;;;;;;;;;;20.18;52.07;97440.91;4185541;28;5841;-62
2023/09/25 14:02:38;;;;;;;;;;;;;;;20.18;51.92;97430.19;4184522;28;5835;-64
2023/09/25 14:04:43;;;;;;;;;;;;;;;20.18;51.89;97436.34;4184433;28;5823;-63
2023/09/25 14:06:46;;;;;;;;;;;;;;;20.17;52.29;97431.22;4182263;28;5968;-64
2023/09/25 14:08:49;;;;;;;;;;;;;;;20.15;52.06;97423.38;4190863;28;5802;-64
2023/09/25 14:10:52;;;;;;;;;;;;;;;20.14;52.07;97416.41;4197209;28;5830;-65
2023/09/25 14:12:55;;;;;;;;;;;;;;;20.15;52.05;97415.34;4185964;28;5906;-64
2023/09/25 14:14:58;;;;;;;;;;;;;;;20.14;52.19;97415.59;4188305;28;5706;-64
2023/09/25 14:17:01;;;;;;;;;;;;;;;20.17;52.30;97415.13;4189992;28;5964;-64
2023/09/25 14:19:05;;;;;;;;;;;;;;;20.19;52.30;97411.16;4184559;28;6628;-63
2023/09/25 14:21:09;;;;;;;;;;;;;;;20.19;52.05;97415.69;4185646;28;5899;-63
2023/09/25 14:23:12;;;;;;;;;;;;;;;20.19;52.19;97408.47;4183805;28;5714;-63
2023/09/25 14:25:16;;;;;;;;;;;;;;;20.21;52.38;97410.91;4186270;28;5720;-65
2023/09/25 14:27:19;;;;;;;;;;;;;;;20.20;52.48;97410.09;4186731;28;5712;-65
2023/09/25 14:29:22;;;;;;;;;;;;;;;20.19;52.55;97405.78;4185976;28;5908;-64
2023/09/25 14:31:24;;;;;;;;;;;;;;;20.19;52.18;97400.41;4177000;28;7869;-63
2023/09/25 14:33:28;;;;;;;;;;;;;;;20.21;52.13;97409.03;4170001;28;6028;-64
2023/09/25 14:35:30;;;;;;;;;;;;;;;20.22;51.91;97412.53;4185366;28;5712;-64
2023/09/25 14:37:36;;;;;;;;;;;;;;;20.22;52.25;97405.28;4183570;28;5902;-64
2023/09/25 14:39:41;;;;;;;;;;;;;;;20.23;52.14;97406.09;4169307;28;5722;-64
2023/09/25 14:41:45;;;;;;;;;;;;;;;20.23;51.76;97406.09;4169029;28;5864;-63
2023/09/25 14:43:47;;;;;;;;;;;;;;;20.23;52.18;97406.91;4170825;28;5223;-63
2023/09/25 14:45:51;;;;;;;;;;;;;;;20.24;51.97;97411.22;4177322;28;6393;-63
2023/09/25 14:47:54;;;;;;;;;;;;;;;20.26;51.99;97409.13;4184997;28;5776;-63
2023/09/25 14:49:57;;;;;;;;;;;;;;;20.27;51.91;97407.25;4186968;28;5810;-63
2023/09/25 14:52:00;;;;;;;;;;;;;;;20.27;52.15;97402.72;4183926;28;5114;-64
2023/09/25 14:54:04;;;;;;;;;;;;;;;20.27;51.82;97399.19;4193514;28;5698;-64
2023/09/25 14:56:07;;;;;;;;;;;;;;;20.25;51.80;97398.63;4187296;28;5868;-65
2023/09/25 14:58:13;;;;;;;;;;;;;;;20.28;51.91;97403.53;4187525;28;5856;-65
2023/09/25 15:00:18;;;;;;;;;;;;;;;20.29;52.12;97400.59;4188901;28;5999;-67
2023/09/25 15:02:21;;;;;;;;;;;;;;;20.29;52.22;97395.22;4183988;28;6581;-63
2023/09/25 15:04:24;;;;;;;;;;;;;;;20.31;51.87;97392.31;4188937;28;5830;-64
2023/09/25 15:06:27;;;;;;;;;;;;;;;20.31;51.70;97387.75;4177020;28;5823;-65
2023/09/25 15:08:30;;;;;;;;;;;;;;;20.31;51.83;97382.38;4184910;28;5785;-63
2023/09/25 15:10:35;;;;;;;;;;;;;;;20.33;52.21;97391.00;4187185;28;5824;-64
2023/09/25 15:12:38;;;;;;;;;;;;;;;20.33;52.08;97385.63;4189890;28;5802;-64
2023/09/25 15:14:41;;;;;;;;;;;;;;;20.32;52.28;97380.50;4187378;28;5719;-64
2023/09/25 15:16:43;;;;;;;;;;;;;;;20.32;52.14;97383.19;4185512;28;5815;-64
2023/09/25 15:18:47;;;;;;;;;;;;;;;20.32;52.14;97377.81;4183581;28;5783;-63
2023/09/25 15:20:50;;;;;;;;;;;;;;;20.33;52.18;97382.13;4184889;28;5799;-64
2023/09/25 15:22:53;;;;;;;;;;;;;;;20.34;52.13;97383.75;4183451;28;5815;-64
2023/09/25 15:24:56;;;;;;;;;;;;;;;20.34;52.00;97381.88;4188760;28;5971;-65
2023/09/25 15:27:00;;;;;;;;;;;;;;;20.35;52.21;97378.13;4183059;28;5802;-65
2023/09/25 15:29:03;;;;;;;;;;;;;;;20.35;52.09;97371.97;4199032;28;5762;-65
2023/09/25 15:31:06;;;;;;;;;;;;;;;20.34;52.32;97376.50;4196613;28;7679;-64
2023/09/25 15:33:08;;;;;;;;;;;;;;;20.34;52.16;97376.50;4191959;28;5704;-64
2023/09/25 15:35:11;;;;;;;;;;;;;;;20.34;52.37;97373.00;4187623;28;5700;-64
2023/09/25 15:37:14;;;;;;;;;;;;;;;20.35;52.32;97375.47;4189058;28;5870;-64